sensor_id;sensor_type;location;lat;lon;timestamp;temperature;humidity
14908;DHT22;7545;52.092;7.006;2022-12-18T00:02:06;-3.20;99.90
14908;DHT22;7545;52.092;7.006;2022-12-18T00:04:32;-3.20;99.90
14908;DHT22;7545;52.092;7.006;2022-12-18T00:06:57;-3.30;99.90
14908;DHT22;7545;52.092;7.006;2022-12-18T00:09:23;-3.20;99.90
14908;DHT22;7545;52.092;7.006;2022-12-18T00:11:49;-3.20;99.90
14908;DHT22;7545;52.092;7.006;2022-12-18T00:14:15;-3.20;99.90
14908;DHT22;7545;52.092;7.006;2022-12-18T00:16:44;-3.30;99.90
14908;DHT22;7545;52.092;7.006;2022-12-18T00:19:10;-3.30;99.90
14908;DHT22;7545;52.092;7.006;2022-12-18T00:21:42;-3.30;99.90
14908;DHT22;7545;52.092;7.006;2022-12-18T00:24:09;-3.40;99.90
14908;DHT22;7545;52.092;7.006;2022-12-18T00:26:36;-3.40;99.90
14908;DHT22;7545;52.092;7.006;2022-12-18T00:29:05;-3.50;99.90
14908;DHT22;7545;52.092;7.006;2022-12-18T00:31:31;-3.50;99.90
14908;DHT22;7545;52.092;7.006;2022-12-18T00:33:57;-3.50;99.90
14908;DHT22;7545;52.092;7.006;2022-12-18T00:36:27;-3.50;99.90
14908;DHT22;7545;52.092;7.006;2022-12-18T00:38:57;-3.60;99.90
14908;DHT22;7545;52.092;7.006;2022-12-18T00:41:23;-3.60;99.90
14908;DHT22;7545;52.092;7.006;2022-12-18T00:44:11;-3.60;99.90
14908;DHT22;7545;52.092;7.006;2022-12-18T00:46:37;-3.60;99.90
14908;DHT22;7545;52.092;7.006;2022-12-18T00:49:02;-3.70;99.90
14908;DHT22;7545;52.092;7.006;2022-12-18T00:51:28;-3.70;99.90
14908;DHT22;7545;52.092;7.006;2022-12-18T00:53:54;-3.70;99.90
14908;DHT22;7545;52.092;7.006;2022-12-18T00:56:23;-3.70;99.90
14908;DHT22;7545;52.092;7.006;2022-12-18T00:58:49;-3.70;99.90
14908;DHT22;7545;52.092;7.006;2022-12-18T01:01:14;-3.80;99.90
14908;DHT22;7545;52.092;7.006;2022-12-18T01:03:40;-3.90;99.90
14908;DHT22;7545;52.092;7.006;2022-12-18T01:06:07;-3.90;99.90
14908;DHT22;7545;52.092;7.006;2022-12-18T01:08:33;-3.90;99.90
14908;DHT22;7545;52.092;7.006;2022-12-18T01:10:59;-3.90;99.90
14908;DHT22;7545;52.092;7.006;2022-12-18T01:13:25;-3.90;99.90
14908;DHT22;7545;52.092;7.006;2022-12-18T01:15:50;-3.90;99.90
14908;DHT22;7545;52.092;7.006;2022-12-18T01:18:16;-3.90;99.90
14908;DHT22;7545;52.092;7.006;2022-12-18T01:20:42;-3.90;99.90
14908;DHT22;7545;52.092;7.006;2022-12-18T01:23:08;-3.90;99.90
14908;DHT22;7545;52.092;7.006;2022-12-18T01:25:35;-3.90;99.90
14908;DHT22;7545;52.092;7.006;2022-12-18T01:28:02;-3.90;99.90
14908;DHT22;7545;52.092;7.006;2022-12-18T01:30:27;-3.90;99.90
14908;DHT22;7545;52.092;7.006;2022-12-18T01:32:53;-4.00;99.90
14908;DHT22;7545;52.092;7.006;2022-12-18T01:35:19;-4.00;99.90
14908;DHT22;7545;52.092;7.006;2022-12-18T01:37:44;-4.00;99.90
14908;DHT22;7545;52.092;7.006;2022-12-18T01:40:10;-4.10;99.90
14908;DHT22;7545;52.092;7.006;2022-12-18T01:42:36;-4.00;99.90
14908;DHT22;7545;52.092;7.006;2022-12-18T01:50:11;-4.10;99.90
14908;DHT22;7545;52.092;7.006;2022-12-18T01:52:38;-4.10;99.90
14908;DHT22;7545;52.092;7.006;2022-12-18T01:55:07;-4.10;99.90
14908;DHT22;7545;52.092;7.006;2022-12-18T01:57:33;-4.10;99.90
14908;DHT22;7545;52.092;7.006;2022-12-18T02:00:04;-4.10;99.90
14908;DHT22;7545;52.092;7.006;2022-12-18T02:02:30;-4.10;99.90
14908;DHT22;7545;52.092;7.006;2022-12-18T02:04:56;-4.10;99.90
14908;DHT22;7545;52.092;7.006;2022-12-18T02:10:27;-4.10;99.90
14908;DHT22;7545;52.092;7.006;2022-12-18T02:15:27;-4.10;99.90
14908;DHT22;7545;52.092;7.006;2022-12-18T02:18:03;-4.10;99.90
14908;DHT22;7545;52.092;7.006;2022-12-18T02:20:39;-4.00;99.90
14908;DHT22;7545;52.092;7.006;2022-12-18T02:26:01;-4.00;99.90
14908;DHT22;7545;52.092;7.006;2022-12-18T02:28:33;-4.00;99.90
14908;DHT22;7545;52.092;7.006;2022-12-18T02:31:02;-4.00;99.90
14908;DHT22;7545;52.092;7.006;2022-12-18T02:33:29;-4.00;99.90
14908;DHT22;7545;52.092;7.006;2022-12-18T02:35:57;-4.00;99.90
14908;DHT22;7545;52.092;7.006;2022-12-18T02:38:23;-4.00;99.90
14908;DHT22;7545;52.092;7.006;2022-12-18T02:40:51;-4.00;99.90
14908;DHT22;7545;52.092;7.006;2022-12-18T02:43:18;-4.00;99.90
14908;DHT22;7545;52.092;7.006;2022-12-18T02:46:27;-4.00;99.90
14908;DHT22;7545;52.092;7.006;2022-12-18T02:48:57;-4.10;99.90
14908;DHT22;7545;52.092;7.006;2022-12-18T02:51:47;-4.10;99.90
14908;DHT22;7545;52.092;7.006;2022-12-18T02:54:43;-4.10;99.90
14908;DHT22;7545;52.092;7.006;2022-12-18T03:02:39;-4.10;99.90
14908;DHT22;7545;52.092;7.006;2022-12-18T03:05:22;-4.10;99.90
14908;DHT22;7545;52.092;7.006;2022-12-18T03:07:59;-4.20;99.90
14908;DHT22;7545;52.092;7.006;2022-12-18T03:10:30;-4.20;99.90
14908;DHT22;7545;52.092;7.006;2022-12-18T03:13:09;-4.30;99.90
14908;DHT22;7545;52.092;7.006;2022-12-18T03:15:44;-4.30;99.90
14908;DHT22;7545;52.092;7.006;2022-12-18T03:18:15;-4.30;99.90
14908;DHT22;7545;52.092;7.006;2022-12-18T03:20:43;-4.30;99.90
14908;DHT22;7545;52.092;7.006;2022-12-18T03:23:13;-4.30;99.90
14908;DHT22;7545;52.092;7.006;2022-12-18T03:25:43;-4.30;99.90
14908;DHT22;7545;52.092;7.006;2022-12-18T03:28:18;-4.30;99.90
14908;DHT22;7545;52.092;7.006;2022-12-18T03:30:47;-4.30;99.90
14908;DHT22;7545;52.092;7.006;2022-12-18T03:33:23;-4.40;99.90
14908;DHT22;7545;52.092;7.006;2022-12-18T03:35:51;-4.40;99.90
14908;DHT22;7545;52.092;7.006;2022-12-18T03:38:16;-4.40;99.90
14908;DHT22;7545;52.092;7.006;2022-12-18T03:43:35;-4.40;99.90
14908;DHT22;7545;52.092;7.006;2022-12-18T03:46:08;-4.40;99.90
14908;DHT22;7545;52.092;7.006;2022-12-18T03:48:44;-4.40;99.90
14908;DHT22;7545;52.092;7.006;2022-12-18T03:51:23;-4.50;99.90
14908;DHT22;7545;52.092;7.006;2022-12-18T03:56:20;-4.50;99.90
14908;DHT22;7545;52.092;7.006;2022-12-18T03:58:47;-4.60;99.90
14908;DHT22;7545;52.092;7.006;2022-12-18T04:01:15;-4.60;99.90
14908;DHT22;7545;52.092;7.006;2022-12-18T04:03:43;-4.60;99.90
14908;DHT22;7545;52.092;7.006;2022-12-18T04:06:11;-4.60;99.90
14908;DHT22;7545;52.092;7.006;2022-12-18T04:08:37;-4.60;99.90
14908;DHT22;7545;52.092;7.006;2022-12-18T04:11:04;-4.60;99.90
14908;DHT22;7545;52.092;7.006;2022-12-18T04:13:34;-4.70;99.90
14908;DHT22;7545;52.092;7.006;2022-12-18T04:16:00;-4.70;99.90
14908;DHT22;7545;52.092;7.006;2022-12-18T04:18:26;-4.70;99.90
14908;DHT22;7545;52.092;7.006;2022-12-18T04:20:52;-4.80;99.90
14908;DHT22;7545;52.092;7.006;2022-12-18T04:23:17;-4.70;99.90
14908;DHT22;7545;52.092;7.006;2022-12-18T04:25:43;-4.70;99.90
14908;DHT22;7545;52.092;7.006;2022-12-18T04:28:09;-4.80;99.90
14908;DHT22;7545;52.092;7.006;2022-12-18T04:30:34;-4.80;99.90
14908;DHT22;7545;52.092;7.006;2022-12-18T04:33:00;-4.80;99.90
14908;DHT22;7545;52.092;7.006;2022-12-18T04:35:25;-4.80;99.90
14908;DHT22;7545;52.092;7.006;2022-12-18T04:37:51;-4.90;99.90
14908;DHT22;7545;52.092;7.006;2022-12-18T04:40:17;-4.90;99.90
14908;DHT22;7545;52.092;7.006;2022-12-18T04:42:42;-4.90;99.90
14908;DHT22;7545;52.092;7.006;2022-12-18T04:45:08;-4.80;99.90
14908;DHT22;7545;52.092;7.006;2022-12-18T04:47:34;-4.90;99.90
14908;DHT22;7545;52.092;7.006;2022-12-18T04:49:59;-4.80;99.90
14908;DHT22;7545;52.092;7.006;2022-12-18T04:52:25;-4.90;99.90
14908;DHT22;7545;52.092;7.006;2022-12-18T04:54:51;-4.90;99.90
14908;DHT22;7545;52.092;7.006;2022-12-18T04:57:16;-4.90;99.90
14908;DHT22;7545;52.092;7.006;2022-12-18T04:59:43;-4.90;99.90
14908;DHT22;7545;52.092;7.006;2022-12-18T05:02:09;-4.90;99.90
14908;DHT22;7545;52.092;7.006;2022-12-18T05:04:34;-4.90;99.90
14908;DHT22;7545;52.092;7.006;2022-12-18T05:07:00;-5.00;99.90
14908;DHT22;7545;52.092;7.006;2022-12-18T05:09:26;-5.00;99.90
14908;DHT22;7545;52.092;7.006;2022-12-18T05:11:51;-5.00;99.90
14908;DHT22;7545;52.092;7.006;2022-12-18T05:14:17;-5.00;99.90
14908;DHT22;7545;52.092;7.006;2022-12-18T05:16:42;-5.00;99.90
14908;DHT22;7545;52.092;7.006;2022-12-18T05:19:08;-5.00;99.90
14908;DHT22;7545;52.092;7.006;2022-12-18T05:21:34;-5.00;99.90
14908;DHT22;7545;52.092;7.006;2022-12-18T05:23:59;-5.00;99.90
14908;DHT22;7545;52.092;7.006;2022-12-18T05:26:25;-5.00;99.90
14908;DHT22;7545;52.092;7.006;2022-12-18T05:28:50;-5.00;99.90
14908;DHT22;7545;52.092;7.006;2022-12-18T05:31:16;-5.00;99.90
14908;DHT22;7545;52.092;7.006;2022-12-18T05:33:42;-5.00;99.90
14908;DHT22;7545;52.092;7.006;2022-12-18T05:36:09;-5.00;99.90
14908;DHT22;7545;52.092;7.006;2022-12-18T05:38:36;-5.00;99.90
14908;DHT22;7545;52.092;7.006;2022-12-18T05:41:03;-5.00;99.90
14908;DHT22;7545;52.092;7.006;2022-12-18T05:43:28;-5.10;99.90
14908;DHT22;7545;52.092;7.006;2022-12-18T05:45:54;-5.10;99.90
14908;DHT22;7545;52.092;7.006;2022-12-18T05:48:21;-5.10;99.90
14908;DHT22;7545;52.092;7.006;2022-12-18T05:50:49;-5.10;99.90
14908;DHT22;7545;52.092;7.006;2022-12-18T05:53:16;-5.10;99.90
14908;DHT22;7545;52.092;7.006;2022-12-18T05:55:43;-5.10;99.90
14908;DHT22;7545;52.092;7.006;2022-12-18T05:58:10;-5.10;99.90
14908;DHT22;7545;52.092;7.006;2022-12-18T06:00:38;-5.10;99.90
14908;DHT22;7545;52.092;7.006;2022-12-18T06:03:08;-5.20;99.90
14908;DHT22;7545;52.092;7.006;2022-12-18T06:05:37;-5.20;99.90
14908;DHT22;7545;52.092;7.006;2022-12-18T06:08:04;-5.20;99.90
14908;DHT22;7545;52.092;7.006;2022-12-18T06:10:30;-5.10;99.90
14908;DHT22;7545;52.092;7.006;2022-12-18T06:12:55;-5.10;99.90
14908;DHT22;7545;52.092;7.006;2022-12-18T06:15:21;-5.20;99.90
14908;DHT22;7545;52.092;7.006;2022-12-18T06:17:46;-5.10;99.90
14908;DHT22;7545;52.092;7.006;2022-12-18T06:20:12;-5.20;99.90
14908;DHT22;7545;52.092;7.006;2022-12-18T06:22:37;-5.20;99.90
14908;DHT22;7545;52.092;7.006;2022-12-18T06:25:04;-5.20;99.90
14908;DHT22;7545;52.092;7.006;2022-12-18T06:27:29;-5.20;99.90
14908;DHT22;7545;52.092;7.006;2022-12-18T06:29:55;-5.20;99.90
14908;DHT22;7545;52.092;7.006;2022-12-18T06:32:20;-5.20;99.90
14908;DHT22;7545;52.092;7.006;2022-12-18T06:34:46;-5.20;99.90
14908;DHT22;7545;52.092;7.006;2022-12-18T06:37:12;-5.20;99.90
14908;DHT22;7545;52.092;7.006;2022-12-18T06:39:37;-5.20;99.90
14908;DHT22;7545;52.092;7.006;2022-12-18T06:42:03;-5.20;99.90
14908;DHT22;7545;52.092;7.006;2022-12-18T06:44:29;-5.20;99.90
14908;DHT22;7545;52.092;7.006;2022-12-18T06:46:55;-5.30;99.90
14908;DHT22;7545;52.092;7.006;2022-12-18T06:49:21;-5.30;99.90
14908;DHT22;7545;52.092;7.006;2022-12-18T06:51:46;-5.20;99.90
14908;DHT22;7545;52.092;7.006;2022-12-18T06:54:12;-5.20;99.90
14908;DHT22;7545;52.092;7.006;2022-12-18T06:56:38;-5.20;99.90
14908;DHT22;7545;52.092;7.006;2022-12-18T06:59:03;-5.20;99.90
14908;DHT22;7545;52.092;7.006;2022-12-18T07:01:29;-5.20;99.90
14908;DHT22;7545;52.092;7.006;2022-12-18T07:03:56;-5.20;99.90
14908;DHT22;7545;52.092;7.006;2022-12-18T07:06:24;-5.20;99.90
14908;DHT22;7545;52.092;7.006;2022-12-18T07:08:50;-5.20;99.90
14908;DHT22;7545;52.092;7.006;2022-12-18T07:11:16;-5.20;99.90
14908;DHT22;7545;52.092;7.006;2022-12-18T07:13:43;-5.20;99.90
14908;DHT22;7545;52.092;7.006;2022-12-18T07:16:11;-5.20;99.90
14908;DHT22;7545;52.092;7.006;2022-12-18T07:18:37;-5.20;99.90
14908;DHT22;7545;52.092;7.006;2022-12-18T07:21:07;-5.20;99.90
14908;DHT22;7545;52.092;7.006;2022-12-18T07:23:34;-5.20;99.90
14908;DHT22;7545;52.092;7.006;2022-12-18T07:26:04;-5.10;99.90
14908;DHT22;7545;52.092;7.006;2022-12-18T07:28:32;-5.10;99.90
14908;DHT22;7545;52.092;7.006;2022-12-18T07:30:58;-5.10;99.90
14908;DHT22;7545;52.092;7.006;2022-12-18T07:33:24;-5.10;99.90
14908;DHT22;7545;52.092;7.006;2022-12-18T07:35:50;-5.10;99.90
14908;DHT22;7545;52.092;7.006;2022-12-18T07:38:16;-5.10;99.90
14908;DHT22;7545;52.092;7.006;2022-12-18T07:40:41;-5.10;99.90
14908;DHT22;7545;52.092;7.006;2022-12-18T07:43:07;-5.10;99.90
14908;DHT22;7545;52.092;7.006;2022-12-18T07:45:33;-5.10;99.90
14908;DHT22;7545;52.092;7.006;2022-12-18T07:47:58;-5.10;99.90
14908;DHT22;7545;52.092;7.006;2022-12-18T07:50:24;-5.10;99.90
14908;DHT22;7545;52.092;7.006;2022-12-18T07:52:49;-5.10;99.90
14908;DHT22;7545;52.092;7.006;2022-12-18T07:55:15;-5.10;99.90
14908;DHT22;7545;52.092;7.006;2022-12-18T07:57:40;-5.10;99.90
14908;DHT22;7545;52.092;7.006;2022-12-18T08:00:06;-5.10;99.90
14908;DHT22;7545;52.092;7.006;2022-12-18T08:02:34;-5.10;99.90
14908;DHT22;7545;52.092;7.006;2022-12-18T08:04:59;-5.10;99.90
14908;DHT22;7545;52.092;7.006;2022-12-18T08:07:25;-5.00;99.90
14908;DHT22;7545;52.092;7.006;2022-12-18T08:09:51;-5.00;99.90
14908;DHT22;7545;52.092;7.006;2022-12-18T08:12:16;-5.00;99.90
14908;DHT22;7545;52.092;7.006;2022-12-18T08:14:42;-4.90;99.90
14908;DHT22;7545;52.092;7.006;2022-12-18T08:17:07;-4.90;99.90
14908;DHT22;7545;52.092;7.006;2022-12-18T08:19:33;-4.80;99.90
14908;DHT22;7545;52.092;7.006;2022-12-18T08:21:58;-4.80;99.90
14908;DHT22;7545;52.092;7.006;2022-12-18T08:24:24;-4.70;99.90
14908;DHT22;7545;52.092;7.006;2022-12-18T08:26:50;-4.60;99.90
14908;DHT22;7545;52.092;7.006;2022-12-18T08:29:15;-4.60;99.90
14908;DHT22;7545;52.092;7.006;2022-12-18T08:31:41;-4.50;99.90
14908;DHT22;7545;52.092;7.006;2022-12-18T08:34:08;-4.40;99.90
14908;DHT22;7545;52.092;7.006;2022-12-18T08:36:33;-4.30;99.90
14908;DHT22;7545;52.092;7.006;2022-12-18T08:38:59;-4.30;99.90
14908;DHT22;7545;52.092;7.006;2022-12-18T08:41:25;-4.20;99.90
14908;DHT22;7545;52.092;7.006;2022-12-18T08:43:50;-4.10;99.90
14908;DHT22;7545;52.092;7.006;2022-12-18T08:46:40;-4.10;99.90
14908;DHT22;7545;52.092;7.006;2022-12-18T08:49:07;-4.00;99.90
14908;DHT22;7545;52.092;7.006;2022-12-18T08:51:33;-4.00;99.90
14908;DHT22;7545;52.092;7.006;2022-12-18T08:53:59;-3.90;99.90
14908;DHT22;7545;52.092;7.006;2022-12-18T08:56:25;-3.90;99.90
14908;DHT22;7545;52.092;7.006;2022-12-18T08:58:52;-3.80;99.90
14908;DHT22;7545;52.092;7.006;2022-12-18T09:01:18;-3.80;99.90
14908;DHT22;7545;52.092;7.006;2022-12-18T09:03:50;-3.80;99.90
14908;DHT22;7545;52.092;7.006;2022-12-18T09:06:18;-3.80;99.90
14908;DHT22;7545;52.092;7.006;2022-12-18T09:08:44;-3.70;99.90
14908;DHT22;7545;52.092;7.006;2022-12-18T09:11:30;-3.70;99.90
14908;DHT22;7545;52.092;7.006;2022-12-18T09:13:57;-3.60;99.90
14908;DHT22;7545;52.092;7.006;2022-12-18T09:16:24;-3.60;99.90
14908;DHT22;7545;52.092;7.006;2022-12-18T09:18:50;-3.60;99.90
14908;DHT22;7545;52.092;7.006;2022-12-18T09:21:18;-3.50;99.90
14908;DHT22;7545;52.092;7.006;2022-12-18T09:23:48;-3.50;99.90
14908;DHT22;7545;52.092;7.006;2022-12-18T09:26:14;-3.50;99.90
14908;DHT22;7545;52.092;7.006;2022-12-18T09:28:40;-3.40;99.90
14908;DHT22;7545;52.092;7.006;2022-12-18T09:31:07;-3.40;99.90
14908;DHT22;7545;52.092;7.006;2022-12-18T09:33:34;-3.30;99.90
14908;DHT22;7545;52.092;7.006;2022-12-18T09:36:02;-3.30;99.90
14908;DHT22;7545;52.092;7.006;2022-12-18T09:38:28;-3.30;99.90
14908;DHT22;7545;52.092;7.006;2022-12-18T09:40:59;-3.20;99.90
14908;DHT22;7545;52.092;7.006;2022-12-18T09:43:37;-3.20;99.90
14908;DHT22;7545;52.092;7.006;2022-12-18T09:46:09;-3.20;99.90
14908;DHT22;7545;52.092;7.006;2022-12-18T09:48:41;-3.10;99.90
14908;DHT22;7545;52.092;7.006;2022-12-18T09:51:32;-3.00;99.90
14908;DHT22;7545;52.092;7.006;2022-12-18T09:54:29;-3.00;99.90
14908;DHT22;7545;52.092;7.006;2022-12-18T09:56:51;-2.90;99.90
14908;DHT22;7545;52.092;7.006;2022-12-18T09:59:34;-2.80;99.90
14908;DHT22;7545;52.092;7.006;2022-12-18T10:02:22;-2.80;99.90
14908;DHT22;7545;52.092;7.006;2022-12-18T10:05:05;-2.70;99.90
14908;DHT22;7545;52.092;7.006;2022-12-18T10:13:58;-2.50;99.90
14908;DHT22;7545;52.092;7.006;2022-12-18T10:18:59;-2.40;99.90
14908;DHT22;7545;52.092;7.006;2022-12-18T10:27:18;-2.20;99.90
14908;DHT22;7545;52.092;7.006;2022-12-18T10:29:46;-2.20;99.90
14908;DHT22;7545;52.092;7.006;2022-12-18T10:32:18;-2.10;99.90
14908;DHT22;7545;52.092;7.006;2022-12-18T10:34:49;-2.10;99.90
14908;DHT22;7545;52.092;7.006;2022-12-18T10:37:20;-2.10;99.90
14908;DHT22;7545;52.092;7.006;2022-12-18T10:40:04;-2.00;99.90
14908;DHT22;7545;52.092;7.006;2022-12-18T10:42:31;-1.90;99.90
14908;DHT22;7545;52.092;7.006;2022-12-18T10:45:16;-1.90;99.90
14908;DHT22;7545;52.092;7.006;2022-12-18T10:47:46;-1.90;99.90
14908;DHT22;7545;52.092;7.006;2022-12-18T10:50:31;-1.80;99.90
14908;DHT22;7545;52.092;7.006;2022-12-18T10:53:00;-1.80;99.90
14908;DHT22;7545;52.092;7.006;2022-12-18T10:55:35;-1.70;99.90
14908;DHT22;7545;52.092;7.006;2022-12-18T11:01:17;-1.60;99.90
14908;DHT22;7545;52.092;7.006;2022-12-18T11:03:45;-1.60;99.90
14908;DHT22;7545;52.092;7.006;2022-12-18T11:08:44;-1.50;99.90
14908;DHT22;7545;52.092;7.006;2022-12-18T11:11:36;-1.50;99.90
14908;DHT22;7545;52.092;7.006;2022-12-18T11:14:05;-1.50;99.90
14908;DHT22;7545;52.092;7.006;2022-12-18T11:16:36;-1.40;99.90
14908;DHT22;7545;52.092;7.006;2022-12-18T11:19:34;-1.40;99.90
14908;DHT22;7545;52.092;7.006;2022-12-18T11:22:24;-1.30;99.90
14908;DHT22;7545;52.092;7.006;2022-12-18T11:27:22;-1.20;99.90
14908;DHT22;7545;52.092;7.006;2022-12-18T11:29:50;-1.20;99.90
14908;DHT22;7545;52.092;7.006;2022-12-18T11:32:29;-1.20;99.90
14908;DHT22;7545;52.092;7.006;2022-12-18T11:35:21;-1.20;99.90
14908;DHT22;7545;52.092;7.006;2022-12-18T11:37:54;-1.10;99.90
14908;DHT22;7545;52.092;7.006;2022-12-18T11:40:30;-1.10;99.90
14908;DHT22;7545;52.092;7.006;2022-12-18T11:43:20;-1.10;99.90
14908;DHT22;7545;52.092;7.006;2022-12-18T11:45:59;-1.00;99.90
14908;DHT22;7545;52.092;7.006;2022-12-18T11:48:37;-1.00;99.90
14908;DHT22;7545;52.092;7.006;2022-12-18T11:51:13;-1.00;99.90
14908;DHT22;7545;52.092;7.006;2022-12-18T11:53:40;-0.90;99.90
14908;DHT22;7545;52.092;7.006;2022-12-18T11:58:45;-0.90;99.90
14908;DHT22;7545;52.092;7.006;2022-12-18T12:31:47;-0.70;99.90
14908;DHT22;7545;52.092;7.006;2022-12-18T12:34:23;-0.70;99.90
14908;DHT22;7545;52.092;7.006;2022-12-18T12:37:22;-0.70;99.90
14908;DHT22;7545;52.092;7.006;2022-12-18T12:39:51;-0.70;99.90
14908;DHT22;7545;52.092;7.006;2022-12-18T12:45:22;-0.60;99.90
14908;DHT22;7545;52.092;7.006;2022-12-18T12:47:51;-0.60;99.90
14908;DHT22;7545;52.092;7.006;2022-12-18T12:50:20;-0.60;99.90
14908;DHT22;7545;52.092;7.006;2022-12-18T12:52:52;-0.60;99.90
14908;DHT22;7545;52.092;7.006;2022-12-18T12:55:28;-0.60;99.90
14908;DHT22;7545;52.092;7.006;2022-12-18T12:58:00;-0.60;99.90
14908;DHT22;7545;52.092;7.006;2022-12-18T13:00:31;-0.50;99.90
14908;DHT22;7545;52.092;7.006;2022-12-18T13:05:40;-0.50;99.90
14908;DHT22;7545;52.092;7.006;2022-12-18T13:08:12;-0.50;99.90
14908;DHT22;7545;52.092;7.006;2022-12-18T13:10:47;-0.50;99.90
14908;DHT22;7545;52.092;7.006;2022-12-18T13:13:16;-0.50;99.90
14908;DHT22;7545;52.092;7.006;2022-12-18T13:16:03;-0.50;99.90
14908;DHT22;7545;52.092;7.006;2022-12-18T13:18:29;-0.50;99.90
14908;DHT22;7545;52.092;7.006;2022-12-18T13:36:44;-0.40;99.90
14908;DHT22;7545;52.092;7.006;2022-12-18T13:41:41;-0.40;99.90
14908;DHT22;7545;52.092;7.006;2022-12-18T13:44:33;-0.40;99.90
14908;DHT22;7545;52.092;7.006;2022-12-18T13:47:01;-0.40;99.90
14908;DHT22;7545;52.092;7.006;2022-12-18T13:49:41;-0.40;99.90
14908;DHT22;7545;52.092;7.006;2022-12-18T13:52:21;-0.30;99.90
14908;DHT22;7545;52.092;7.006;2022-12-18T13:54:51;-0.40;99.90
14908;DHT22;7545;52.092;7.006;2022-12-18T13:57:33;-0.30;99.90
14908;DHT22;7545;52.092;7.006;2022-12-18T14:00:24;-0.30;99.90
14908;DHT22;7545;52.092;7.006;2022-12-18T14:02:50;-0.30;99.90
14908;DHT22;7545;52.092;7.006;2022-12-18T14:05:29;-0.40;99.90
14908;DHT22;7545;52.092;7.006;2022-12-18T14:08:00;-0.30;99.90
14908;DHT22;7545;52.092;7.006;2022-12-18T14:10:26;-0.30;99.90
14908;DHT22;7545;52.092;7.006;2022-12-18T14:12:53;-0.30;99.90
14908;DHT22;7545;52.092;7.006;2022-12-18T14:17:52;-0.30;99.90
14908;DHT22;7545;52.092;7.006;2022-12-18T14:20:18;-0.40;99.90
14908;DHT22;7545;52.092;7.006;2022-12-18T14:22:49;-0.40;99.90
14908;DHT22;7545;52.092;7.006;2022-12-18T14:25:21;-0.40;99.90
14908;DHT22;7545;52.092;7.006;2022-12-18T14:27:51;-0.30;99.90
14908;DHT22;7545;52.092;7.006;2022-12-18T14:30:32;-0.40;99.90
14908;DHT22;7545;52.092;7.006;2022-12-18T14:33:05;-0.30;99.90
14908;DHT22;7545;52.092;7.006;2022-12-18T14:35:37;-0.40;99.90
14908;DHT22;7545;52.092;7.006;2022-12-18T14:40:56;-0.40;99.90
14908;DHT22;7545;52.092;7.006;2022-12-18T14:43:26;-0.40;99.90
14908;DHT22;7545;52.092;7.006;2022-12-18T14:45:52;-0.40;99.90
14908;DHT22;7545;52.092;7.006;2022-12-18T14:48:21;-0.40;99.90
14908;DHT22;7545;52.092;7.006;2022-12-18T14:53:47;-0.40;99.90
14908;DHT22;7545;52.092;7.006;2022-12-18T14:58:55;-0.30;99.90
14908;DHT22;7545;52.092;7.006;2022-12-18T15:01:27;-0.30;99.90
14908;DHT22;7545;52.092;7.006;2022-12-18T15:03:54;-0.40;99.90
14908;DHT22;7545;52.092;7.006;2022-12-18T15:06:29;-0.30;99.90
14908;DHT22;7545;52.092;7.006;2022-12-18T15:08:56;-0.40;99.90
14908;DHT22;7545;52.092;7.006;2022-12-18T15:14:41;-0.30;99.90
14908;DHT22;7545;52.092;7.006;2022-12-18T15:17:20;-0.30;99.90
14908;DHT22;7545;52.092;7.006;2022-12-18T15:19:48;-0.30;99.90
14908;DHT22;7545;52.092;7.006;2022-12-18T15:22:24;-0.30;99.90
14908;DHT22;7545;52.092;7.006;2022-12-18T15:24:51;-0.30;99.90
14908;DHT22;7545;52.092;7.006;2022-12-18T15:27:33;-0.30;99.90
14908;DHT22;7545;52.092;7.006;2022-12-18T15:32:39;-0.30;99.90
14908;DHT22;7545;52.092;7.006;2022-12-18T15:35:18;-0.30;99.90
14908;DHT22;7545;52.092;7.006;2022-12-18T15:37:45;-0.30;99.90
14908;DHT22;7545;52.092;7.006;2022-12-18T15:40:22;-0.30;99.90
14908;DHT22;7545;52.092;7.006;2022-12-18T15:42:53;-0.30;99.90
14908;DHT22;7545;52.092;7.006;2022-12-18T15:45:38;-0.30;99.90
14908;DHT22;7545;52.092;7.006;2022-12-18T15:48:20;-0.30;99.90
14908;DHT22;7545;52.092;7.006;2022-12-18T15:50:46;-0.30;99.90
14908;DHT22;7545;52.092;7.006;2022-12-18T15:53:11;-0.30;99.90
14908;DHT22;7545;52.092;7.006;2022-12-18T15:55:37;-0.30;99.90
14908;DHT22;7545;52.092;7.006;2022-12-18T15:58:21;-0.30;99.90
14908;DHT22;7545;52.092;7.006;2022-12-18T16:00:47;-0.30;99.90
14908;DHT22;7545;52.092;7.006;2022-12-18T16:03:13;-0.30;99.90
14908;DHT22;7545;52.092;7.006;2022-12-18T16:05:38;-0.30;99.90
14908;DHT22;7545;52.092;7.006;2022-12-18T16:08:04;-0.30;99.90
14908;DHT22;7545;52.092;7.006;2022-12-18T16:10:30;-0.30;99.90
14908;DHT22;7545;52.092;7.006;2022-12-18T16:12:55;-0.30;99.90
14908;DHT22;7545;52.092;7.006;2022-12-18T16:15:21;-0.30;99.90
14908;DHT22;7545;52.092;7.006;2022-12-18T16:17:47;-0.30;99.90
14908;DHT22;7545;52.092;7.006;2022-12-18T16:20:19;-0.30;99.90
14908;DHT22;7545;52.092;7.006;2022-12-18T16:22:46;-0.30;99.90
14908;DHT22;7545;52.092;7.006;2022-12-18T16:25:27;-0.30;99.90
14908;DHT22;7545;52.092;7.006;2022-12-18T16:27:54;-0.30;99.90
14908;DHT22;7545;52.092;7.006;2022-12-18T16:30:24;-0.30;99.90
14908;DHT22;7545;52.092;7.006;2022-12-18T16:32:51;-0.30;99.90
14908;DHT22;7545;52.092;7.006;2022-12-18T16:35:17;-0.30;99.90
14908;DHT22;7545;52.092;7.006;2022-12-18T16:37:43;-0.30;99.90
14908;DHT22;7545;52.092;7.006;2022-12-18T16:40:11;-0.30;99.90
14908;DHT22;7545;52.092;7.006;2022-12-18T16:42:39;-0.30;99.90
14908;DHT22;7545;52.092;7.006;2022-12-18T16:45:06;-0.30;99.90
14908;DHT22;7545;52.092;7.006;2022-12-18T16:47:32;-0.30;99.90
14908;DHT22;7545;52.092;7.006;2022-12-18T16:49:58;-0.30;99.90
14908;DHT22;7545;52.092;7.006;2022-12-18T16:52:24;-0.30;99.90
14908;DHT22;7545;52.092;7.006;2022-12-18T16:54:50;-0.30;99.90
14908;DHT22;7545;52.092;7.006;2022-12-18T16:57:17;-0.30;99.90
14908;DHT22;7545;52.092;7.006;2022-12-18T16:59:43;-0.30;99.90
14908;DHT22;7545;52.092;7.006;2022-12-18T17:02:14;-0.30;99.90
14908;DHT22;7545;52.092;7.006;2022-12-18T17:04:40;-0.30;99.90
14908;DHT22;7545;52.092;7.006;2022-12-18T17:07:07;-0.30;99.90
14908;DHT22;7545;52.092;7.006;2022-12-18T17:09:33;-0.30;99.90
14908;DHT22;7545;52.092;7.006;2022-12-18T17:11:58;-0.20;99.90
14908;DHT22;7545;52.092;7.006;2022-12-18T17:14:24;-0.20;99.90
14908;DHT22;7545;52.092;7.006;2022-12-18T17:16:52;-0.20;99.90
14908;DHT22;7545;52.092;7.006;2022-12-18T17:19:17;-0.20;99.90
14908;DHT22;7545;52.092;7.006;2022-12-18T17:21:44;-0.20;99.90
14908;DHT22;7545;52.092;7.006;2022-12-18T17:24:10;-0.10;99.90
14908;DHT22;7545;52.092;7.006;2022-12-18T17:26:36;-0.10;99.90
14908;DHT22;7545;52.092;7.006;2022-12-18T17:29:02;-0.10;99.90
14908;DHT22;7545;52.092;7.006;2022-12-18T17:31:28;0.00;99.90
14908;DHT22;7545;52.092;7.006;2022-12-18T17:33:54;0.00;99.90
14908;DHT22;7545;52.092;7.006;2022-12-18T17:36:20;0.00;99.90
14908;DHT22;7545;52.092;7.006;2022-12-18T17:38:55;0.10;99.90
14908;DHT22;7545;52.092;7.006;2022-12-18T17:41:21;0.10;99.90
14908;DHT22;7545;52.092;7.006;2022-12-18T17:43:55;0.20;99.90
14908;DHT22;7545;52.092;7.006;2022-12-18T17:46:22;0.30;99.90
14908;DHT22;7545;52.092;7.006;2022-12-18T17:48:48;0.40;99.90
14908;DHT22;7545;52.092;7.006;2022-12-18T17:51:14;0.40;99.90
14908;DHT22;7545;52.092;7.006;2022-12-18T17:53:41;0.40;99.90
14908;DHT22;7545;52.092;7.006;2022-12-18T17:56:08;0.40;99.90
14908;DHT22;7545;52.092;7.006;2022-12-18T17:58:36;0.40;99.90
14908;DHT22;7545;52.092;7.006;2022-12-18T18:01:03;0.40;99.90
14908;DHT22;7545;52.092;7.006;2022-12-18T18:03:29;0.40;99.90